Time;durP1;ratioP1;P1;durP2;ratioP2;P2;SDS_P1;SDS_P2;PMS_P1;PMS_P2;Temp;Humidity;BMP_temperature;BMP_pressure;BME280_temperature;BME280_humidity;BME280_pressure;Samples;Min_cycle;Max_cycle;Signal;HPM_P1;HPM_P2
2023/01/16 00:02:39;;;;;;;;;7.00;7.00;;;;;10.36;56.58;97863.19;6220230;28;96516;-63
2023/01/16 00:05:43;;;;;;;;;4.00;4.00;;;;;10.41;56.09;97867.84;6237923;28;96216;-63
2023/01/16 00:08:48;;;;;;;;;5.00;4.25;;;;;10.42;55.74;97859.53;6228843;28;96642;-63
2023/01/16 00:11:53;;;;;;;;;5.00;5.00;;;;;10.45;55.90;97863.63;6253045;27;97002;-64
2023/01/16 00:14:56;;;;;;;;;6.00;6.00;;;;;10.49;55.72;97858.56;6248286;27;96631;-63
2023/01/16 00:18:00;;;;;;;;;4.00;4.00;;;;;10.50;55.61;97855.63;6246512;27;96860;-63
2023/01/16 00:21:03;;;;;;;;;5.00;4.00;;;;;10.50;55.53;97861.00;6236669;27;96654;-64
2023/01/16 00:24:07;;;;;;;;;4.00;4.00;;;;;10.51;55.05;97859.94;6263757;27;97033;-63
2023/01/16 00:27:12;;;;;;;;;5.00;5.00;;;;;10.54;55.14;97856.75;6242067;27;96614;-63
2023/01/16 00:30:16;;;;;;;;;5.00;5.00;;;;;10.53;55.30;97847.03;6236617;27;96274;-63
2023/01/16 00:33:19;;;;;;;;;4.20;3.60;;;;;10.50;55.18;97839.47;6218865;28;96668;-63
2023/01/16 00:36:22;;;;;;;;;4.00;4.00;;;;;10.46;55.41;97842.91;6238346;28;96236;-63
2023/01/16 00:39:26;;;;;;;;;5.00;4.00;;;;;10.47;55.41;97841.81;6237736;28;96497;-64
2023/01/16 00:42:30;;;;;;;;;5.00;5.00;;;;;10.42;55.69;97835.28;6219899;28;96652;-64
2023/01/16 00:45:34;;;;;;;;;5.00;5.00;;;;;10.42;55.39;97840.66;6239030;27;96428;-63
2023/01/16 00:48:37;;;;;;;;;5.00;5.00;;;;;10.37;55.26;97839.78;6238213;27;96660;-64
2023/01/16 00:51:41;;;;;;;;;4.00;4.00;;;;;10.36;55.21;97841.66;6247007;27;97397;-63
2023/01/16 00:54:44;;;;;;;;;5.00;5.00;;;;;10.41;55.21;97844.41;6257069;27;96956;-63
2023/01/16 00:57:48;;;;;;;;;5.00;4.00;;;;;10.40;55.16;97831.22;6248659;27;96089;-63
2023/01/16 01:00:52;;;;;;;;;6.00;5.00;;;;;10.37;55.07;97827.13;6232931;27;96635;-64
2023/01/16 01:03:56;;;;;;;;;5.00;4.00;;;;;10.38;55.08;97839.53;6233631;28;96326;-64
2023/01/16 01:06:59;;;;;;;;;5.00;5.00;;;;;10.37;55.01;97839.78;6248153;27;96818;-64
2023/01/16 01:10:03;;;;;;;;;5.00;5.00;;;;;10.33;54.98;97841.34;6228296;28;98447;-63
2023/01/16 01:13:08;;;;;;;;;6.00;5.40;;;;;10.27;55.00;97845.81;6235020;27;96764;-63
2023/01/16 01:16:12;;;;;;;;;6.00;5.00;;;;;10.25;54.91;97845.25;6256484;27;96257;-64
2023/01/16 01:19:16;;;;;;;;;3.75;3.75;;;;;10.22;54.95;97848.44;6235837;28;96273;-63
2023/01/16 01:22:20;;;;;;;;;6.60;5.00;;;;;10.15;54.96;97839.69;6236929;28;96373;-62
2023/01/16 01:25:23;;;;;;;;;4.50;4.50;;;;;10.13;55.09;97833.72;6235235;27;97075;-63
2023/01/16 01:28:28;;;;;;;;;5.00;4.80;;;;;10.08;54.99;97833.63;6223648;27;97064;-63
2023/01/16 01:31:32;;;;;;;;;4.00;4.00;;;;;10.04;54.74;97829.78;6251869;27;96460;-64
2023/01/16 01:34:35;;;;;;;;;3.00;3.00;;;;;9.95;55.00;97820.47;6242598;27;96320;-63
2023/01/16 01:37:39;;;;;;;;;5.00;4.00;;;;;9.93;54.94;97823.41;6241481;27;96702;-63
2023/01/16 01:40:42;;;;;;;;;4.00;4.00;;;;;9.83;55.04;97808.94;6260248;27;96386;-62
2023/01/16 01:43:49;;;;;;;;;5.00;5.00;;;;;9.84;55.18;97824.06;6262661;27;96220;-63
2023/01/16 01:46:52;;;;;;;;;8.00;7.00;;;;;9.81;55.16;97816.47;6255845;27;96151;-62
2023/01/16 01:49:58;;;;;;;;;5.00;5.00;;;;;9.78;55.26;97823.13;6249071;27;96210;-63
2023/01/16 01:53:08;;;;;;;;;5.80;5.00;;;;;9.73;55.40;97822.22;6250676;27;96306;-63
2023/01/16 01:56:17;;;;;;;;;6.00;5.00;;;;;9.71;55.27;97827.06;6241852;27;96665;-64
2023/01/16 01:59:26;;;;;;;;;5.00;5.00;;;;;9.67;55.31;97834.81;6246300;27;96141;-62
2023/01/16 02:02:34;;;;;;;;;5.00;5.00;;;;;9.63;55.38;97828.25;6250368;27;98328;-63
2023/01/16 02:05:44;;;;;;;;;3.00;3.00;;;;;9.42;55.36;97796.66;6210561;28;96566;-63
2023/01/16 02:08:51;;;;;;;;;6.00;5.00;;;;;9.51;55.43;97822.13;6246579;27;96955;-64
2023/01/16 02:11:55;;;;;;;;;4.80;4.80;;;;;9.48;55.08;97809.16;6229875;27;96868;-64
2023/01/16 02:15:02;;;;;;;;;3.80;3.80;;;;;9.43;54.83;97792.94;6250498;27;96308;-64
2023/01/16 02:22:02;;;;;;;;;5.00;5.00;;;;;9.27;55.50;97794.50;6232987;28;96637;-63
2023/01/16 02:25:41;;;;;;;;;4.60;4.60;;;;;9.20;55.45;97784.94;6261477;27;96775;-63
2023/01/16 02:29:16;;;;;;;;;4.60;4.60;;;;;9.13;55.61;97785.09;6211176;27;96250;-63
2023/01/16 02:32:37;;;;;;;;;5.50;5.00;;;;;9.08;55.69;97783.13;6237565;27;98505;-62
2023/01/16 02:35:55;;;;;;;;;6.00;6.00;;;;;9.06;55.60;97782.53;6239960;27;98300;-62
2023/01/16 02:39:11;;;;;;;;;6.60;6.60;;;;;9.00;55.38;97775.41;6238920;27;96428;-63
2023/01/16 02:42:24;;;;;;;;;6.00;5.00;;;;;8.93;55.76;97782.81;6230635;27;97782;-63
2023/01/16 02:45:36;;;;;;;;;4.00;4.00;;;;;8.83;56.18;97777.22;6249462;27;96174;-63
2023/01/16 02:48:50;;;;;;;;;6.40;6.40;;;;;8.76;56.19;97775.69;6235821;27;96851;-62
2023/01/16 02:52:01;;;;;;;;;5.80;5.80;;;;;8.70;56.63;97775.59;6255013;27;98066;-64
2023/01/16 02:55:08;;;;;;;;;7.00;5.00;;;;;8.73;57.17;97768.94;6214794;28;96186;-63
2023/01/16 02:58:14;;;;;;;;;7.00;7.00;;;;;8.74;57.23;97772.47;6233040;28;96513;-62
2023/01/16 03:01:19;;;;;;;;;6.00;6.00;;;;;8.74;57.04;97767.91;6221412;28;96602;-62
2023/01/16 03:04:46;;;;;;;;;6.00;5.80;;;;;8.69;56.94;97776.66;6221626;28;96938;-63
2023/01/16 03:08:09;;;;;;;;;5.00;4.00;;;;;8.67;58.02;97765.34;6240142;28;96308;-63
2023/01/16 03:11:24;;;;;;;;;4.80;3.20;;;;;8.60;58.04;97774.59;6240307;28;97530;-63
2023/01/16 03:14:36;;;;;;;;;6.40;6.00;;;;;8.59;57.40;97770.25;6259131;27;96357;-63
2023/01/16 03:17:52;;;;;;;;;4.00;3.40;;;;;8.53;57.36;97773.88;6259730;27;95872;-64
2023/01/16 03:21:05;;;;;;;;;4.40;4.40;;;;;8.50;57.66;97764.41;6239226;27;96336;-63
2023/01/16 03:24:20;;;;;;;;;4.40;4.40;;;;;8.48;56.92;97760.34;6221135;27;96720;-63
2023/01/16 03:27:37;;;;;;;;;6.40;6.00;;;;;8.46;56.97;97760.56;6240157;28;96224;-65
2023/01/16 03:30:50;;;;;;;;;5.00;5.00;;;;;8.34;56.76;97742.84;6221541;28;96295;-65
2023/01/16 03:34:08;;;;;;;;;5.00;5.00;;;;;8.41;56.91;97751.56;6238452;28;96863;-64
2023/01/16 03:37:18;;;;;;;;;7.00;6.00;;;;;8.38;56.90;97750.19;6238593;28;96367;-63
2023/01/16 03:40:27;;;;;;;;;6.00;5.40;;;;;8.35;57.41;97748.00;6209433;28;96310;-62
2023/01/16 03:43:35;;;;;;;;;5.00;5.00;;;;;8.30;57.09;97755.94;6239832;28;96300;-63
2023/01/16 03:46:43;;;;;;;;;5.00;5.00;;;;;8.28;57.05;97755.31;6221061;28;96590;-65
2023/01/16 03:49:52;;;;;;;;;5.00;5.00;;;;;8.31;56.95;97760.22;6221025;28;96253;-63
2023/01/16 03:53:04;;;;;;;;;6.00;6.00;;;;;8.37;56.91;97755.78;6228510;27;96934;-63
2023/01/16 03:56:14;;;;;;;;;4.80;4.80;;;;;8.32;56.68;97764.56;6243201;27;96202;-63
2023/01/16 03:59:26;;;;;;;;;5.00;5.00;;;;;8.37;57.10;97761.97;6254529;27;96596;-63
2023/01/16 04:02:36;;;;;;;;;4.00;4.00;;;;;8.45;56.92;97764.31;6247867;27;96593;-63
2023/01/16 04:05:49;;;;;;;;;4.00;4.00;;;;;8.49;56.63;97756.59;6237289;28;96351;-62
2023/01/16 04:08:58;;;;;;;;;2.00;2.00;;;;;8.49;56.75;97729.75;6237862;28;96469;-62
2023/01/16 04:12:03;;;;;;;;;4.00;4.00;;;;;8.70;56.68;97739.84;6239402;28;96273;-63
2023/01/16 04:15:08;;;;;;;;;3.20;3.00;;;;;8.78;56.40;97733.31;6239225;28;96194;-62
2023/01/16 04:18:12;;;;;;;;;4.00;4.00;;;;;8.80;56.18;97718.56;6220484;28;98386;-63
2023/01/16 04:21:15;;;;;;;;;4.00;3.00;;;;;8.78;56.02;97722.56;6220557;28;98691;-62
2023/01/16 04:24:20;;;;;;;;;4.00;4.00;;;;;8.71;56.25;97720.00;6253554;27;96329;-62
2023/01/16 04:27:24;;;;;;;;;5.00;5.00;;;;;8.68;56.44;97718.59;6262501;27;98148;-62
2023/01/16 04:30:27;;;;;;;;;4.00;3.60;;;;;8.66;56.51;97717.19;6256803;27;96140;-62
2023/01/16 04:33:31;;;;;;;;;4.00;4.00;;;;;8.61;56.65;97714.41;6215594;28;96193;-62
2023/01/16 04:36:34;;;;;;;;;6.00;6.00;;;;;8.56;56.70;97720.50;6238202;27;96510;-62
2023/01/16 04:39:40;;;;;;;;;5.60;5.00;;;;;8.53;56.90;97728.22;6237456;28;96403;-62
2023/01/16 04:42:43;;;;;;;;;5.50;5.00;;;;;8.50;57.12;97715.28;6229370;28;96319;-63
2023/01/16 04:45:47;;;;;;;;;5.60;5.00;;;;;8.44;57.30;97714.34;6235889;28;96601;-63
2023/01/16 04:48:50;;;;;;;;;3.00;3.00;;;;;8.42;57.30;97705.69;6234131;28;96287;-64
2023/01/16 04:51:54;;;;;;;;;5.00;4.00;;;;;8.35;57.60;97691.59;6213980;28;96568;-62
2023/01/16 04:54:58;;;;;;;;;3.60;3.60;;;;;8.42;57.32;97700.31;6218816;28;96666;-62
2023/01/16 04:58:01;;;;;;;;;7.00;6.00;;;;;8.40;57.52;97699.75;6225603;27;96393;-62
2023/01/16 05:01:05;;;;;;;;;6.00;5.50;;;;;8.43;57.33;97699.28;6232397;27;96346;-63
2023/01/16 05:04:10;;;;;;;;;7.00;4.60;;;;;8.41;57.68;97697.88;6200932;28;98329;-63
2023/01/16 05:07:14;;;;;;;;;5.00;4.50;;;;;8.38;57.80;97690.28;6235453;28;96289;-62
2023/01/16 05:10:18;;;;;;;;;7.00;5.80;;;;;8.35;58.08;97686.22;6237176;28;96869;-62
2023/01/16 05:13:22;;;;;;;;;4.80;4.80;;;;;8.37;58.42;97684.09;6219875;28;97324;-62
2023/01/16 05:16:26;;;;;;;;;7.00;7.00;;;;;8.42;57.97;97678.03;6236283;28;96667;-64
2023/01/16 05:19:30;;;;;;;;;5.40;5.00;;;;;8.46;58.08;97671.13;6234282;28;96201;-63
2023/01/16 05:22:34;;;;;;;;;5.50;5.00;;;;;8.49;58.06;97673.34;6236583;28;96277;-63
2023/01/16 05:25:39;;;;;;;;;5.40;5.00;;;;;8.55;58.22;97667.03;6237180;28;96213;-63
2023/01/16 05:28:42;;;;;;;;;10.00;9.00;;;;;8.56;58.07;97657.91;6231269;27;96920;-63
2023/01/16 05:31:45;;;;;;;;;5.60;5.60;;;;;8.54;57.98;97651.97;6229871;28;96234;-63
2023/01/16 05:34:49;;;;;;;;;3.20;3.00;;;;;8.54;58.09;97657.34;6237331;28;96289;-64
2023/01/16 05:37:52;;;;;;;;;5.20;5.20;;;;;8.57;58.08;97656.84;6219208;28;96659;-63
2023/01/16 05:40:57;;;;;;;;;7.40;7.00;;;;;8.51;58.39;97655.09;6240520;27;96321;-63
2023/01/16 05:44:00;;;;;;;;;5.00;5.00;;;;;8.44;58.53;97654.44;6235297;27;96288;-63
2023/01/16 05:47:04;;;;;;;;;7.40;7.00;;;;;8.44;58.96;97655.25;6218120;28;96370;-63
2023/01/16 05:50:09;;;;;;;;;5.60;5.60;;;;;8.50;58.86;97650.81;6231805;27;96456;-64
2023/01/16 05:53:12;;;;;;;;;6.00;6.00;;;;;8.53;58.60;97651.16;6250489;27;97769;-65
2023/01/16 05:56:21;;;;;;;;;6.40;6.40;;;;;8.56;58.38;97637.22;6232663;27;96527;-63
2023/01/16 05:59:24;;;;;;;;;5.00;5.00;;;;;8.61;58.33;97639.19;6236691;27;97029;-63
2023/01/16 06:02:27;;;;;;;;;8.00;7.00;;;;;8.65;58.49;97634.97;6201441;28;98340;-64
2023/01/16 06:05:31;;;;;;;;;7.60;7.60;;;;;8.72;58.38;97634.84;6238427;28;97709;-64
2023/01/16 06:08:34;;;;;;;;;9.00;7.40;;;;;8.78;58.02;97628.50;6219867;28;98375;-63
2023/01/16 06:11:39;;;;;;;;;7.00;7.00;;;;;8.82;57.95;97621.59;6217050;28;96245;-62
2023/01/16 06:14:42;;;;;;;;;7.00;6.00;;;;;8.84;57.83;97619.50;6238494;27;96442;-64
2023/01/16 06:17:46;;;;;;;;;7.50;7.00;;;;;8.83;57.78;97624.03;6233469;27;96408;-64
2023/01/16 06:20:49;;;;;;;;;9.00;8.00;;;;;8.92;57.91;97616.41;6214297;28;98870;-64
2023/01/16 06:23:53;;;;;;;;;7.40;7.40;;;;;8.95;57.80;97613.22;6235960;28;96167;-64
2023/01/16 06:26:57;;;;;;;;;8.00;8.00;;;;;8.97;58.00;97609.25;6218279;28;96573;-63
2023/01/16 06:30:01;;;;;;;;;8.00;7.25;;;;;8.99;57.74;97614.38;6208070;27;98472;-63
2023/01/16 06:33:05;;;;;;;;;7.00;7.00;;;;;8.96;57.93;97614.84;6233646;28;96876;-63
2023/01/16 06:36:08;;;;;;;;;11.25;10.00;;;;;8.98;58.02;97610.88;6218842;28;99410;-63
2023/01/16 06:39:12;;;;;;;;;9.67;8.67;;;;;8.93;58.48;97613.47;6244554;27;97819;-63
2023/01/16 06:42:16;;;;;;;;;6.60;6.60;;;;;8.94;58.39;97614.28;6230133;28;96587;-63
2023/01/16 06:45:21;;;;;;;;;6.60;6.60;;;;;8.96;58.41;97612.97;6231931;27;96733;-63
2023/01/16 06:48:25;;;;;;;;;8.60;8.00;;;;;9.00;58.42;97613.31;6225873;28;97605;-65
2023/01/16 06:51:28;;;;;;;;;8.00;7.20;;;;;9.06;58.35;97613.16;6228888;28;96929;-64
2023/01/16 06:54:32;;;;;;;;;9.00;7.80;;;;;9.08;58.13;97613.75;6217535;28;96796;-63
2023/01/16 06:57:37;;;;;;;;;9.60;9.40;;;;;9.11;58.01;97607.88;6224363;27;96799;-64
2023/01/16 07:00:41;;;;;;;;;9.60;8.60;;;;;9.15;57.87;97600.13;6234666;28;96692;-63
2023/01/16 07:03:44;;;;;;;;;10.00;9.40;;;;;9.19;57.76;97597.78;6233325;28;96273;-64
2023/01/16 07:06:49;;;;;;;;;10.00;9.00;;;;;9.24;57.46;97597.84;6225628;28;98326;-64
2023/01/16 07:09:52;;;;;;;;;8.60;7.00;;;;;9.30;57.62;97596.88;6223461;28;96505;-64
2023/01/16 07:12:57;;;;;;;;;9.00;9.00;;;;;9.39;57.42;97592.72;6234798;28;96212;-63
2023/01/16 07:22:45;;;;;;;;;13.00;12.00;;;;;9.48;56.74;97580.50;6211005;28;96625;-63
2023/01/16 07:25:50;;;;;;;;;8.50;8.00;;;;;9.50;56.96;97583.75;6238395;28;96643;-63
2023/01/16 07:28:57;;;;;;;;;9.40;9.40;;;;;9.46;56.54;97587.97;6225852;28;96419;-63
2023/01/16 07:32:03;;;;;;;;;9.00;8.00;;;;;9.45;56.59;97589.84;6234258;28;96328;-62
2023/01/16 07:35:08;;;;;;;;;11.00;10.00;;;;;9.43;56.76;97591.97;6215718;28;96433;-62
2023/01/16 07:38:11;;;;;;;;;10.00;9.00;;;;;9.44;56.70;97590.09;6212331;28;98331;-63
2023/01/16 07:41:15;;;;;;;;;9.60;9.00;;;;;9.44;56.86;97588.22;6210318;28;96276;-62
2023/01/16 07:44:19;;;;;;;;;9.00;9.00;;;;;9.44;57.37;97585.53;6226903;28;98432;-62
2023/01/16 07:47:23;;;;;;;;;10.00;9.00;;;;;9.47;57.66;97585.06;6198354;28;97270;-64
2023/01/16 07:50:27;;;;;;;;;11.75;10.75;;;;;9.53;57.36;97572.47;6223470;28;96415;-66
2023/01/16 07:53:32;;;;;;;;;8.00;8.00;;;;;9.57;57.10;97579.00;6183492;27;98820;-66
2023/01/16 07:56:35;;;;;;;;;9.00;8.00;;;;;9.58;56.95;97576.06;6216555;27;97552;-66
2023/01/16 07:59:42;;;;;;;;;10.00;10.00;;;;;9.59;57.02;97568.81;6223812;27;98047;-65
2023/01/16 08:02:45;;;;;;;;;9.80;9.20;;;;;9.65;56.78;97567.81;6187963;28;96635;-63
2023/01/16 08:05:50;;;;;;;;;10.60;10.00;;;;;9.69;56.59;97551.97;6236444;28;97173;-64
2023/01/16 08:08:53;;;;;;;;;12.00;10.00;;;;;9.70;56.24;97562.50;6201519;28;96732;-64
2023/01/16 08:11:57;;;;;;;;;9.00;8.00;;;;;9.66;56.60;97557.88;6213135;28;98379;-65
2023/01/16 08:15:02;;;;;;;;;13.40;12.00;;;;;9.62;56.88;97551.38;6238071;28;96322;-64
2023/01/16 08:18:05;;;;;;;;;13.00;12.00;;;;;9.63;57.29;97536.84;6231460;28;96455;-63
2023/01/16 08:21:08;;;;;;;;;12.00;12.00;;;;;9.69;57.45;97533.16;6200187;28;96619;-65
2023/01/16 08:24:14;;;;;;;;;11.00;11.00;;;;;9.76;57.30;97528.41;6208746;28;98385;-63
2023/01/16 08:27:18;;;;;;;;;12.25;11.75;;;;;9.81;56.84;97532.00;6214479;28;98463;-63
2023/01/16 08:30:23;;;;;;;;;11.60;11.40;;;;;9.86;56.59;97517.78;6216978;28;96221;-63
2023/01/16 08:33:27;;;;;;;;;11.50;11.50;;;;;9.89;57.04;97509.19;6238156;28;96138;-63
2023/01/16 08:36:30;;;;;;;;;16.00;14.40;;;;;9.95;56.74;97508.19;6253578;27;96364;-63
2023/01/16 08:39:33;;;;;;;;;12.40;11.40;;;;;10.00;55.88;97505.56;6202655;28;97430;-63
2023/01/16 08:52:42;;;;;;;;;14.80;13.60;;;;;9.86;55.78;97477.41;6212844;28;98146;-64
2023/01/16 08:55:45;;;;;;;;;13.00;11.60;;;;;9.98;55.75;97484.28;6218222;28;96578;-64
2023/01/16 08:58:48;;;;;;;;;14.80;13.00;;;;;9.99;56.04;97480.53;6217071;28;96674;-64
2023/01/16 09:01:53;;;;;;;;;13.00;13.00;;;;;10.02;55.76;97471.09;6234954;28;97434;-64
2023/01/16 09:04:56;;;;;;;;;14.20;13.20;;;;;10.07;55.70;97475.75;6220105;28;98834;-65
2023/01/16 09:08:00;;;;;;;;;14.00;13.00;;;;;10.02;55.65;97464.94;6182566;28;96485;-64
2023/01/16 09:14:26;;;;;;;;;13.00;13.00;;;;;10.07;56.33;97456.91;6226942;28;96254;-64
2023/01/16 09:17:31;;;;;;;;;13.50;12.00;;;;;10.16;55.87;97448.16;6228018;28;96348;-63
2023/01/16 09:20:34;;;;;;;;;15.60;14.00;;;;;10.21;55.94;97433.94;6200759;28;96920;-63
2023/01/16 09:23:38;;;;;;;;;13.60;13.00;;;;;10.34;55.94;97434.34;6219764;28;96397;-62
2023/01/16 09:26:41;;;;;;;;;15.00;13.25;;;;;10.40;56.03;97427.94;6217121;28;96416;-64
2023/01/16 09:29:45;;;;;;;;;15.60;13.60;;;;;10.46;56.19;97417.97;6230994;28;96360;-62
2023/01/16 09:32:49;;;;;;;;;17.00;16.00;;;;;10.53;56.41;97426.69;6238001;28;96344;-63
2023/01/16 09:35:53;;;;;;;;;13.20;12.20;;;;;10.59;55.30;97414.06;6230407;28;96881;-63
2023/01/16 09:38:56;;;;;;;;;14.00;14.00;;;;;10.66;55.27;97407.38;6194909;28;96236;-63
2023/01/16 09:45:42;;;;;;;;;20.60;17.60;;;;;10.86;54.97;97385.97;6218385;28;96286;-63
2023/01/16 09:48:53;;;;;;;;;22.00;21.00;;;;;10.85;55.41;97348.47;6228935;28;96256;-65
2023/01/16 09:59:01;;;;;;;;;25.40;24.40;;;;;11.07;55.63;97345.63;6218728;28;96466;-64
2023/01/16 10:02:15;;;;;;;;;23.00;21.00;;;;;11.21;55.69;97334.09;6222552;28;96593;-64
2023/01/16 10:05:25;;;;;;;;;24.25;24.00;;;;;11.25;55.62;97304.72;6189994;28;96825;-64
2023/01/16 10:08:35;;;;;;;;;24.20;24.20;;;;;11.47;54.70;97302.63;6244754;28;96276;-62
2023/01/16 10:11:44;;;;;;;;;29.00;26.00;;;;;11.56;54.33;97297.53;6242017;28;96349;-62
2023/01/16 10:15:02;;;;;;;;;30.00;27.40;;;;;11.66;54.54;97297.53;6209566;27;96875;-64
2023/01/16 10:18:23;;;;;;;;;29.00;26.00;;;;;11.81;54.42;97291.41;6243128;28;96369;-63
2023/01/16 10:21:52;;;;;;;;;33.60;29.80;;;;;11.94;54.25;97296.25;6203381;28;98449;-62
2023/01/16 10:25:12;;;;;;;;;29.40;27.40;;;;;12.00;53.63;97279.81;6202415;28;96709;-62
2023/01/16 10:28:29;;;;;;;;;29.60;26.40;;;;;12.00;53.22;97270.88;6236462;28;96435;-62
2023/01/16 10:31:39;;;;;;;;;28.50;25.00;;;;;11.95;52.82;97266.28;6246943;27;97009;-62
2023/01/16 10:34:53;;;;;;;;;30.00;26.00;;;;;11.89;53.08;97251.16;6244566;28;96437;-63
2023/01/16 10:38:15;;;;;;;;;30.00;29.00;;;;;11.88;52.84;97241.44;6251442;28;96861;-63
2023/01/16 10:51:35;;;;;;;;;25.00;24.60;;;;;11.69;52.97;97213.31;6241745;28;96830;-63
2023/01/16 10:54:40;;;;;;;;;26.60;25.00;;;;;11.69;53.25;97200.63;6248434;28;96237;-63
2023/01/16 10:57:47;;;;;;;;;27.20;25.80;;;;;11.71;53.09;97184.19;6249120;28;96363;-63
2023/01/16 11:00:53;;;;;;;;;22.80;21.60;;;;;11.73;53.08;97181.25;6242031;28;96903;-63
2023/01/16 11:03:59;;;;;;;;;25.80;23.00;;;;;11.75;53.41;97177.19;6247489;28;96326;-64
2023/01/16 11:07:16;;;;;;;;;24.25;23.25;;;;;11.78;52.98;97171.25;6248322;28;96654;-63
2023/01/16 11:10:23;;;;;;;;;24.20;22.20;;;;;11.73;52.91;97161.25;6249454;28;96460;-62
2023/01/16 11:20:18;;;;;;;;;23.00;22.40;;;;;11.62;53.36;97167.72;6248567;28;96264;-63
2023/01/16 11:23:23;;;;;;;;;24.40;21.80;;;;;11.50;53.54;97150.97;6249551;28;95947;-63
2023/01/16 11:26:30;;;;;;;;;24.00;19.00;;;;;11.38;53.78;97122.66;6245495;28;96284;-63
2023/01/16 11:29:38;;;;;;;;;21.00;19.60;;;;;11.42;54.14;97137.22;6226603;28;96191;-62
2023/01/16 11:32:48;;;;;;;;;19.40;18.00;;;;;11.43;54.65;97134.25;6248202;28;96399;-62
2023/01/16 11:35:54;;;;;;;;;22.60;20.00;;;;;11.48;54.76;97128.88;6250580;28;96753;-64
2023/01/16 11:39:00;;;;;;;;;20.25;19.00;;;;;11.47;54.65;97131.84;6247276;28;96915;-62
2023/01/16 11:46:02;;;;;;;;;21.80;18.60;;;;;11.50;54.41;97117.78;6244619;27;97283;-64
2023/01/16 11:49:06;;;;;;;;;20.80;19.40;;;;;11.33;54.67;97109.16;6246607;28;96363;-63
2023/01/16 11:52:14;;;;;;;;;22.00;19.25;;;;;11.34;54.55;97103.47;6231662;28;96553;-64
2023/01/16 11:55:18;;;;;;;;;16.80;16.00;;;;;11.46;54.48;97095.13;6249937;28;96284;-63
2023/01/16 11:58:33;;;;;;;;;17.00;16.00;;;;;11.56;54.40;97079.75;6230878;28;97078;-64
2023/01/16 12:09:04;;;;;;;;;17.50;17.50;;;;;12.23;52.78;97056.91;6227187;28;96213;-62
2023/01/16 12:16:17;;;;;;;;;25.00;22.60;;;;;12.25;51.95;97041.25;6231246;28;96942;-64
2023/01/16 12:19:35;;;;;;;;;21.00;20.00;;;;;12.27;52.24;97033.66;6242538;28;96577;-63
2023/01/16 12:23:01;;;;;;;;;23.00;21.00;;;;;12.38;52.04;97024.41;6240618;28;96248;-63
2023/01/16 12:26:16;;;;;;;;;21.40;19.60;;;;;12.49;51.10;97026.00;6248028;28;97115;-62
2023/01/16 12:29:32;;;;;;;;;19.40;18.40;;;;;12.59;51.34;97008.91;6220858;28;96521;-63
2023/01/16 12:32:50;;;;;;;;;21.00;19.00;;;;;12.73;50.83;97009.88;6228860;28;96508;-62
2023/01/16 12:36:02;;;;;;;;;21.40;20.40;;;;;12.84;50.93;97003.31;6245976;28;96863;-63
2023/01/16 12:39:18;;;;;;;;;19.20;19.00;;;;;12.96;49.77;96994.84;6216176;28;98154;-64
2023/01/16 12:46:00;;;;;;;;;21.00;20.00;;;;;13.35;49.27;96975.84;6254265;27;97101;-65
2023/01/16 12:49:27;;;;;;;;;23.00;21.00;;;;;13.58;48.23;96979.69;6247869;27;96619;-65
2023/01/16 12:52:46;;;;;;;;;25.00;22.00;;;;;13.66;48.01;96987.19;6257334;27;97573;-64
2023/01/16 12:56:01;;;;;;;;;20.20;19.20;;;;;13.63;47.89;96979.66;6246965;28;96891;-62
2023/01/16 12:59:18;;;;;;;;;20.00;19.00;;;;;13.51;48.10;96971.09;6242867;28;96500;-63
2023/01/16 13:02:30;;;;;;;;;22.00;21.00;;;;;13.41;48.37;96974.72;6224645;28;96276;-62
2023/01/16 13:05:38;;;;;;;;;20.80;19.40;;;;;13.27;48.51;96966.47;6244617;28;96990;-63
2023/01/16 13:08:50;;;;;;;;;17.50;17.00;;;;;12.97;49.15;96964.00;6255470;27;96433;-63
2023/01/16 13:15:29;;;;;;;;;19.80;17.00;;;;;12.93;49.88;96939.44;6233698;28;96582;-63
2023/01/16 13:18:39;;;;;;;;;18.25;17.25;;;;;13.06;49.69;96946.06;6241563;28;96997;-62
2023/01/16 13:21:56;;;;;;;;;20.50;17.50;;;;;13.39;48.70;96939.81;6243271;28;96337;-63
2023/01/16 13:25:07;;;;;;;;;19.60;17.40;;;;;13.43;48.65;96926.53;6243901;28;96339;-64
2023/01/16 13:28:24;;;;;;;;;18.00;14.00;;;;;13.29;48.86;96926.38;6245407;28;96505;-63
2023/01/16 13:31:34;;;;;;;;;18.20;16.80;;;;;12.95;49.29;96912.88;6243620;28;97694;-63
2023/01/16 13:34:42;;;;;;;;;17.75;16.75;;;;;12.67;49.90;96900.16;6244616;28;96871;-65
2023/01/16 13:38:11;;;;;;;;;18.50;17.50;;;;;12.54;51.10;96895.41;6240876;28;96686;-62
2023/01/16 13:41:22;;;;;;;;;18.00;15.60;;;;;12.37;51.01;96897.69;6238709;28;96288;-64
2023/01/16 13:47:52;;;;;;;;;20.00;18.50;;;;;12.33;51.41;96881.25;6232176;28;97511;-63
2023/01/16 13:50:59;;;;;;;;;17.75;15.75;;;;;12.26;51.46;96869.16;6220819;28;96687;-63
2023/01/16 13:54:05;;;;;;;;;18.00;17.00;;;;;12.18;51.73;96865.13;6221202;28;96286;-63
2023/01/16 13:57:14;;;;;;;;;17.60;16.60;;;;;11.95;52.54;96863.94;6232792;28;96799;-62
2023/01/16 14:00:23;;;;;;;;;18.00;17.25;;;;;12.00;52.63;96858.53;6232045;28;96352;-63
2023/01/16 14:03:28;;;;;;;;;18.20;17.60;;;;;12.14;52.63;96854.09;6230318;27;96608;-63
2023/01/16 14:06:43;;;;;;;;;17.00;15.20;;;;;12.39;52.30;96849.59;6247927;28;96254;-63
2023/01/16 14:10:15;;;;;;;;;19.80;17.20;;;;;12.53;52.01;96831.63;6248744;28;97118;-62
2023/01/16 14:13:26;;;;;;;;;17.40;16.80;;;;;12.57;51.47;96835.38;6246399;28;96956;-63
2023/01/16 14:16:38;;;;;;;;;17.25;16.00;;;;;12.49;51.53;96812.50;6226147;28;96629;-64
2023/01/16 14:19:53;;;;;;;;;17.00;16.00;;;;;12.47;51.78;96830.06;6246805;27;96511;-62
2023/01/16 14:26:22;;;;;;;;;16.75;15.00;;;;;12.21;52.57;96813.28;6242486;27;96752;-63
2023/01/16 14:29:29;;;;;;;;;17.00;14.60;;;;;11.98;53.11;96816.66;6247503;28;96316;-62
2023/01/16 14:32:36;;;;;;;;;18.60;17.60;;;;;11.83;53.81;96811.38;6241186;28;96149;-62
2023/01/16 14:35:46;;;;;;;;;18.00;15.00;;;;;11.64;54.25;96798.50;6215216;28;96687;-64
2023/01/16 14:38:51;;;;;;;;;19.40;18.00;;;;;11.51;54.59;96796.44;6242746;28;96552;-65
2023/01/16 14:55:59;;;;;;;;;19.00;17.40;;;;;10.98;55.32;96781.03;6241391;28;96462;-64
2023/01/16 14:59:10;;;;;;;;;22.40;19.00;;;;;10.83;55.57;96780.00;6242976;28;96429;-63
2023/01/16 15:02:19;;;;;;;;;19.60;18.60;;;;;10.72;55.67;96773.00;6222751;28;96294;-62
2023/01/16 15:05:49;;;;;;;;;18.60;17.60;;;;;10.76;55.23;96779.47;6229113;28;96989;-63
2023/01/16 15:08:55;;;;;;;;;19.00;17.50;;;;;10.69;55.12;96767.38;6218334;28;96591;-62
2023/01/16 15:12:03;;;;;;;;;18.00;16.00;;;;;10.66;55.06;96763.31;6243716;28;97063;-64
2023/01/16 15:15:21;;;;;;;;;19.40;17.40;;;;;10.62;55.05;96751.47;6245219;28;96232;-65
2023/01/16 15:21:58;;;;;;;;;19.20;17.20;;;;;10.48;55.36;96755.84;6226768;28;97970;-64
2023/01/16 15:25:13;;;;;;;;;19.00;17.00;;;;;10.43;55.29;96745.88;6247005;28;96292;-65
2023/01/16 15:28:27;;;;;;;;;18.40;18.00;;;;;10.36;55.60;96731.88;6237299;28;96593;-63
2023/01/16 15:31:35;;;;;;;;;19.80;18.80;;;;;10.31;55.12;96718.41;6218844;28;97908;-63
2023/01/16 15:34:38;;;;;;;;;19.00;17.60;;;;;10.28;55.66;96718.16;6231628;27;96594;-62
2023/01/16 15:37:48;;;;;;;;;17.00;16.20;;;;;10.25;56.07;96714.16;6241158;27;96075;-62
2023/01/16 15:40:54;;;;;;;;;19.00;18.80;;;;;10.22;56.25;96714.66;6246778;28;96354;-63
2023/01/16 15:47:54;;;;;;;;;22.00;19.00;;;;;10.14;56.79;96695.53;6228380;28;96447;-64
2023/01/16 15:51:02;;;;;;;;;20.00;20.00;;;;;10.17;56.50;96695.03;6245625;28;96343;-63
2023/01/16 15:54:06;;;;;;;;;23.00;21.80;;;;;10.06;56.29;96677.25;6243935;27;96332;-63
2023/01/16 15:57:16;;;;;;;;;24.60;23.60;;;;;9.96;56.26;96676.19;6240130;28;97350;-62
2023/01/16 16:00:35;;;;;;;;;25.50;21.75;;;;;10.05;56.42;96676.44;6240119;27;96446;-64
2023/01/16 16:03:42;;;;;;;;;23.00;21.00;;;;;10.06;56.70;96663.81;6234507;27;97923;-61
2023/01/16 16:06:47;;;;;;;;;23.00;21.60;;;;;10.07;56.52;96676.19;6237369;27;97902;-62
2023/01/16 16:09:54;;;;;;;;;26.50;23.50;;;;;10.09;56.77;96663.25;6220523;28;96668;-64
2023/01/16 16:12:58;;;;;;;;;23.00;19.60;;;;;10.05;57.04;96656.81;6240715;27;96593;-64
2023/01/16 16:19:32;;;;;;;;;23.50;21.00;;;;;9.87;57.09;96639.34;6237438;27;97102;-63
2023/01/16 16:22:50;;;;;;;;;20.00;18.80;;;;;9.90;57.18;96633.41;6247189;27;96344;-64
2023/01/16 16:25:56;;;;;;;;;21.60;20.00;;;;;9.89;57.04;96631.78;6222964;28;97516;-62